Tampa International Airport
KTPA : rendu visible

Aérodrome :











RETROUVEZ-NOUS SUR...

 
LOGIN :

S'inscrire | Disclaimer

   EN    FR    IT 

 









Légende :    VFR   VFR Marginal   IFR   IFR Intensif   IFR Très Intensif
Visi : 
Plafond : 
>= 8 km
>= 3000ft
5 à 8 km
1000 à 3000 ft
1500m à 5 km
500 à 1000 ft
800 à 1500m
200 à 500 ft
< 800m
< 200 ft
Symboles :   Orages  Brouillard  Fortes neiges  Fortes précipitations  Vent > 20 kt






- Altitude de l'aérodrome : 26 ft
- Code IATA : TPA


KTPA - Tampa International

DERNIER METAR :
  • 290553Z 00000KT 10SM CLR 22/19 A3009 RMK AO2 SLP188 T02220194 10250 20222 58002

METARs EXPIRÉS :
  • 290453Z 00000KT 10SM CLR 23/20 A3009 RMK AO2 SLP190 T02280200 403110217
  • 290353Z 00000KT 10SM CLR 23/19 A3009 RMK AO2 SLP190 T02280194

TAF KTPA
Valide du 29 à 06h jusqu'au 30 à 12h UTC


290526Z 2906/3012 VRB03KT P6SM SKC
FM290900 VRB03KT 6SM BR FEW010
FM291400 17007KT P6SM FEW025 SCT250
FM291800 23008KT P6SM FEW040 FEW250
FM300200 VRB03KT P6SM SKC



MET'MAP, la Météo Aéronautique d'un coup d'oeil ! - Copyright ORBIFLY Décembre 2007 - Disclaimer

ORBIFLY MET'MAP TEAM :

Programmation & Développement : Alexandra Zaïnal
Sur une idée originale de : Baudouin d'Aumeries
Assistance à la programmation : Marc-Olivier Méhu
Soutien technique & logistique : Manuel Goepfert

Contact : metmap@orbifly.com




SOURCES & CREDITS :

   NOAA       Earth
Advisory